地図

経路データ

SID SEASON NUMBER BASIN SUBBASIN NAME ISO_TIME NATURE LAT LON WMO_WIND WMO_PRES WMO_AGENCY TRACK_TYPE DIST2LAND LANDFALL IFLAG USA_AGENCY USA_ATCF_ID USA_LAT USA_LON USA_RECORD USA_STATUS USA_WIND USA_PRES USA_SSHS USA_R34_NE USA_R34_SE USA_R34_SW USA_R34_NW USA_R50_NE USA_R50_SE USA_R50_SW USA_R50_NW USA_R64_NE USA_R64_SE USA_R64_SW USA_R64_NW USA_POCI USA_ROCI USA_RMW USA_EYE TOKYO_LAT TOKYO_LON TOKYO_GRADE TOKYO_WIND TOKYO_PRES TOKYO_R50_DIR TOKYO_R50_LONG TOKYO_R50_SHORT TOKYO_R30_DIR TOKYO_R30_LONG TOKYO_R30_SHORT TOKYO_LAND CMA_LAT CMA_LON CMA_CAT CMA_WIND CMA_PRES HKO_LAT HKO_LON HKO_CAT HKO_WIND HKO_PRES NEWDELHI_LAT NEWDELHI_LON NEWDELHI_GRADE NEWDELHI_WIND NEWDELHI_PRES NEWDELHI_CI NEWDELHI_DP NEWDELHI_POCI REUNION_LAT REUNION_LON REUNION_TYPE REUNION_WIND REUNION_PRES REUNION_TNUM REUNION_CI REUNION_RMW REUNION_R34_NE REUNION_R34_SE REUNION_R34_SW REUNION_R34_NW REUNION_R50_NE REUNION_R50_SE REUNION_R50_SW REUNION_R50_NW REUNION_R64_NE REUNION_R64_SE REUNION_R64_SW REUNION_R64_NW BOM_LAT BOM_LON BOM_TYPE BOM_WIND BOM_PRES BOM_TNUM BOM_CI BOM_RMW BOM_R34_NE BOM_R34_SE BOM_R34_SW BOM_R34_NW BOM_R50_NE BOM_R50_SE BOM_R50_SW BOM_R50_NW BOM_R64_NE BOM_R64_SE BOM_R64_SW BOM_R64_NW BOM_ROCI BOM_POCI BOM_EYE BOM_POS_METHOD BOM_PRES_METHOD NADI_LAT NADI_LON NADI_CAT NADI_WIND NADI_PRES WELLINGTON_LAT WELLINGTON_LON WELLINGTON_WIND WELLINGTON_PRES DS824_LAT DS824_LON DS824_STAGE DS824_WIND DS824_PRES TD9636_LAT TD9636_LON TD9636_STAGE TD9636_WIND TD9636_PRES TD9635_LAT TD9635_LON TD9635_WIND TD9635_PRES TD9635_ROCI NEUMANN_LAT NEUMANN_LON NEUMANN_CLASS NEUMANN_WIND NEUMANN_PRES MLC_LAT MLC_LON MLC_CLASS MLC_WIND MLC_PRES USA_GUST BOM_GUST BOM_GUST_PER REUNION_GUST REUNION_GUST_PER USA_SEAHGT USA_SEARAD_NE USA_SEARAD_SE USA_SEARAD_SW USA_SEARAD_NW STORM_SPEED STORM_DIR
1929204N22090 1929 44 NI BB NOT_NAMED 1929-07-23 00:00:00 TS 22.0000 90.1000 main 0 0 _________O____ -1 22.0000 90.1000 TC 30 4 281
1929204N22090 1929 44 NI BB NOT_NAMED 1929-07-23 03:00:00 TS 22.0331 89.9117 main 0 0 _________PO___ -1 22.0497 89.8175 TC 30 22.0000 90.1000 1 6 278
1929204N22090 1929 44 NI BB NOT_NAMED 1929-07-23 06:00:00 TS 22.0832 89.4734 main 0 0 _________OP___ -1 22.1000 89.4000 TC 30 22.0580 89.5835 1 9 276
1929204N22090 1929 44 NI BB NOT_NAMED 1929-07-23 09:00:00 TS 22.1340 88.9015 main 0 0 _________PP___ -1 22.1504 88.7725 TC 30 22.1121 89.0734 1 11 275
1929204N22090 1929 44 NI BB NOT_NAMED 1929-07-23 12:00:00 TS 22.1801 88.3383 main 0 0 _________OP___ -1 22.2000 88.1000 TC 30 22.1602 88.5766 1 10 275
1929204N22090 1929 44 NI BB NOT_NAMED 1929-07-23 15:00:00 TS 22.2248 87.8387 main 0 0 _________PO___ -1 22.2496 87.5774 TC 30 22.2000 88.1000 1 9 275
1929204N22090 1929 44 NI BB NOT_NAMED 1929-07-23 18:00:00 TS 22.2661 87.3719 main 0 0 _________OP___ -1 22.3000 87.1000 TC 30 22.2322 87.6438 1 9 275
1929204N22090 1929 44 NI BB NOT_NAMED 1929-07-23 21:00:00 TS 22.3010 86.9129 main 0 0 _________PP___ -1 22.3343 86.6447 TC 30 22.2676 87.1811 1 9 276
1929204N22090 1929 44 NI BB NOT_NAMED 1929-07-24 00:00:00 TS 22.3597 86.3890 main 0 0 _________OP___ -1 22.4000 86.1000 TC 30 22.3193 86.6779 1 11 279
1929204N22090 1929 44 NI BB NOT_NAMED 1929-07-24 03:00:00 TS 22.4676 85.7188 main 0 0 _________PO___ -1 22.5353 85.3377 TC 30 22.4000 86.1000 1 14 280
1929204N22090 1929 44 NI BB NOT_NAMED 1929-07-24 06:00:00 TS 22.6071 84.9440 main 0 0 _________OP___ -1 22.7000 84.5000 TC 30 22.5142 85.3881 1 15 281
1929204N22090 1929 44 NI BB NOT_NAMED 1929-07-24 09:00:00 TS 22.7530 84.1688 main 0 0 _________PP___ -1 22.8496 83.7348 TC 30 22.6565 84.6027 1 15 282
1929204N22090 1929 44 NI BB NOT_NAMED 1929-07-24 12:00:00 TS 22.9101 83.3954 main 0 0 _________OP___ -1 23.0000 83.0000 TC 30 22.8203 83.7909 1 14 283
1929204N22090 1929 44 NI BB NOT_NAMED 1929-07-24 15:00:00 TS 23.0673 82.6423 main 0 0 _________PO___ -1 23.1347 82.2846 TC 30 23.0000 83.0000 1 14 284
1929204N22090 1929 44 NI BB NOT_NAMED 1929-07-24 18:00:00 TS 23.2405 81.9299 main 0 0 _________OP___ -1 23.3000 81.6000 TC 30 23.1810 82.2597 1 14 287
1929204N22090 1929 44 NI BB NOT_NAMED 1929-07-24 21:00:00 TS 23.4598 81.2327 main 0 0 _________PP___ -1 23.5425 80.9127 TC 30 23.3770 81.5526 1 13 290
1929204N22090 1929 44 NI BB NOT_NAMED 1929-07-25 00:00:00 TS 23.6922 80.5970 main 0 0 _________OP___ -1 23.8000 80.3000 TC 30 23.5845 80.8941 1 12 292
1929204N22090 1929 44 NI BB NOT_NAMED 1929-07-25 03:00:00 TS 23.8998 80.0598 main 0 0 _________PO___ -1 23.9996 79.8196 TC 30 23.8000 80.3000 1 10 295
1929204N22090 1929 44 NI BB NOT_NAMED 1929-07-25 06:00:00 TS 24.1142 79.5924 main 0 0 _________OP___ -1 24.2000 79.4000 TC 30 24.0284 79.7849 1 10 299
1929204N22090 1929 44 NI BB NOT_NAMED 1929-07-25 09:00:00 TS 24.3602 79.1410 main 0 0 _________PP___ -1 24.4574 78.9501 TC 30 24.2631 79.3320 1 9 301
1929204N22090 1929 44 NI BB NOT_NAMED 1929-07-25 12:00:00 TS 24.5956 78.7066 main 0 0 _________OP___ -1 24.7000 78.5000 TC 30 24.4912 78.9131 1 9 298
1929204N22090 1929 44 NI BB NOT_NAMED 1929-07-25 15:00:00 TS 24.7824 78.2749 main 0 0 _________PO___ -1 24.8649 78.0497 TC 30 24.7000 78.5000 1 9 294
1929204N22090 1929 44 NI AS NOT_NAMED 1929-07-25 18:00:00 TS 24.9372 77.8428 main 0 0 _________OP___ -1 25.0000 77.6000 TC 30 24.8743 78.0856 1 8 292
1929204N22090 1929 44 NI AS NOT_NAMED 1929-07-25 21:00:00 TS 25.0888 77.4230 main 0 0 _________PP___ -1 25.1495 77.1798 TC 30 25.0280 77.6662 1 9 290
1929204N22090 1929 44 NI AS NOT_NAMED 1929-07-26 00:00:00 TS 25.2339 76.9569 main 0 0 _________OP___ -1 25.3000 76.7000 TC 30 25.1678 77.2138 1 10 287
1929204N22090 1929 44 NI AS NOT_NAMED 1929-07-26 03:00:00 TS 25.3787 76.3938 main 0 0 _________PO___ -1 25.4575 76.0875 TC 30 25.3000 76.7000 1 11 285
1929204N22090 1929 44 NI AS NOT_NAMED 1929-07-26 06:00:00 TS 25.5201 75.7509 main 0 0 _________OP___ -1 25.6000 75.4000 TC 30 25.4402 76.1018 1 12 282
1929204N22090 1929 44 NI AS NOT_NAMED 1929-07-26 09:00:00 TS 25.6397 75.0773 main 0 0 _________PP___ -1 25.7072 74.7148 TC 30 25.5722 75.4399 1 13 280
1929204N22090 1929 44 NI AS NOT_NAMED 1929-07-26 12:00:00 TS 25.7465 74.3665 main 0 0 _________OP___ -1 25.8000 74.0000 TC 30 25.6930 74.7330 1 13 279
1929204N22090 1929 44 NI AS NOT_NAMED 1929-07-26 15:00:00 TS 25.8536 73.6288 main 0 0 _________PO___ -1 25.9072 73.2575 TC 30 25.8000 74.0000 1 14 279
1929204N22090 1929 44 NI AS NOT_NAMED 1929-07-26 18:00:00 TS 25.9492 72.8614 main 0 0 _________OP___ -1 26.0000 72.5000 TC 30 25.8984 73.2228 1 14 277
1929204N22090 1929 44 NI AS NOT_NAMED 1929-07-26 21:00:00 TS 26.0196 72.0687 main 0 0 _________PP___ -1 26.0577 71.7049 TC 30 25.9815 72.4326 1 14 275
1929204N22090 1929 44 NI AS NOT_NAMED 1929-07-27 00:00:00 TS 26.0743 71.3380 main 0 0 _________OP___ -1 26.1000 71.0000 TC 30 26.0486 71.6760 1 12 275
1929204N22090 1929 44 NI AS NOT_NAMED 1929-07-27 03:00:00 TS 26.1284 70.7525 main 0 0 _________PO___ -1 26.1568 70.5050 TC 30 26.1000 71.0000 1 10 276
1929204N22090 1929 44 NI AS NOT_NAMED 1929-07-27 06:00:00 TS 26.1707 70.2776 main 0 0 _________OP___ -1 26.2000 70.1000 TC 30 26.1415 70.4553 1 8 274
1929204N22090 1929 44 NI AS NOT_NAMED 1929-07-27 09:00:00 TS 26.1888 69.8185 main 0 0 _________PP___ -1 26.2074 69.6424 TC 30 26.1701 69.9947 1 8 272
1929204N22090 1929 44 NI AS NOT_NAMED 1929-07-27 12:00:00 TS 26.1944 69.3933 main 0 0 _________OP___ -1 26.2000 69.2000 TC 30 26.1888 69.5867 1 7 271
1929204N22090 1929 44 NI AS NOT_NAMED 1929-07-27 15:00:00 TS 26.1999 68.9962 main 0 0 _________PO___ -1 26.1998 68.7925 TC 30 26.2000 69.2000 1 7 271
1929204N22090 1929 44 NI AS NOT_NAMED 1929-07-27 18:00:00 TS 26.2032 68.6336 main 0 0 _________OP___ -1 26.2000 68.4000 TC 30 26.2056 68.8088 1 7 270
1929204N22090 1929 44 NI AS NOT_NAMED 1929-07-27 21:00:00 TS 26.2041 68.2470 main 0 0 _________PP___ -1 26.2003 68.0025 TC 30 26.2067 68.4100 1 7 270
1929204N22090 1929 44 NI AS NOT_NAMED 1929-07-28 00:00:00 TS 26.2030 67.8708 main 0 0 _________OP___ -1 26.2000 67.6000 TC 30 26.2045 68.0062 1 6 270
1929204N22090 1929 44 NI AS NOT_NAMED 1929-07-28 03:00:00 NR 26.2000 67.6000 main 0 __________O___ -1 TC 26.2000 67.6000 1 5 269

IBTrACS Databaseについて

本データベースは、米国NOAAが公開する1842年以降の世界の熱帯低気圧のベストトラックデータアーカイブInternational Best Track Archive for Climate Stewardship (IBTrACS)を、ウェブで閲覧しやすい形式に変換したものです。

最終更新日:2021-11-26